sensor_id;sensor_type;location;lat;lon;timestamp;P1;durP1;ratioP1;P2;durP2;ratioP2
57643;SDS011;43474;46.510;6.686;2022-10-16T00:01:58;1.23;;;1.10;;
57643;SDS011;43474;46.510;6.686;2022-10-16T00:04:23;2.38;;;1.10;;
57643;SDS011;43474;46.510;6.686;2022-10-16T00:06:49;3.88;;;1.13;;
57643;SDS011;43474;46.510;6.686;2022-10-16T00:09:14;3.67;;;1.00;;
57643;SDS011;43474;46.510;6.686;2022-10-16T00:11:41;4.20;;;1.02;;
57643;SDS011;43474;46.510;6.686;2022-10-16T00:14:09;1.50;;;1.00;;
57643;SDS011;43474;46.510;6.686;2022-10-16T00:16:36;4.47;;;1.40;;
57643;SDS011;43474;46.510;6.686;2022-10-16T00:19:03;2.97;;;1.20;;
57643;SDS011;43474;46.510;6.686;2022-10-16T00:21:30;1.75;;;1.10;;
57643;SDS011;43474;46.510;6.686;2022-10-16T00:24:00;2.13;;;1.08;;
57643;SDS011;43474;46.510;6.686;2022-10-16T00:26:28;3.38;;;1.00;;
57643;SDS011;43474;46.510;6.686;2022-10-16T00:28:55;2.88;;;1.25;;
57643;SDS011;43474;46.510;6.686;2022-10-16T00:31:21;1.88;;;1.02;;
57643;SDS011;43474;46.510;6.686;2022-10-16T00:33:48;1.52;;;0.90;;
57643;SDS011;43474;46.510;6.686;2022-10-16T00:36:16;3.60;;;1.65;;
57643;SDS011;43474;46.510;6.686;2022-10-16T00:38:43;0.93;;;0.73;;
57643;SDS011;43474;46.510;6.686;2022-10-16T00:41:14;1.50;;;1.00;;
57643;SDS011;43474;46.510;6.686;2022-10-16T00:43:42;1.75;;;1.00;;
57643;SDS011;43474;46.510;6.686;2022-10-16T00:49:05;2.58;;;0.90;;
57643;SDS011;43474;46.510;6.686;2022-10-16T00:51:56;3.45;;;1.10;;
57643;SDS011;43474;46.510;6.686;2022-10-16T00:54:24;6.80;;;1.65;;
57643;SDS011;43474;46.510;6.686;2022-10-16T00:56:53;2.75;;;0.98;;
57643;SDS011;43474;46.510;6.686;2022-10-16T00:59:20;1.05;;;0.80;;
57643;SDS011;43474;46.510;6.686;2022-10-16T01:01:50;2.88;;;1.60;;
57643;SDS011;43474;46.510;6.686;2022-10-16T01:04:16;2.35;;;1.10;;
57643;SDS011;43474;46.510;6.686;2022-10-16T01:09:28;1.67;;;0.82;;
57643;SDS011;43474;46.510;6.686;2022-10-16T01:15:26;2.70;;;1.10;;
57643;SDS011;43474;46.510;6.686;2022-10-16T01:20:35;4.28;;;0.98;;
57643;SDS011;43474;46.510;6.686;2022-10-16T01:25:53;1.20;;;1.10;;
57643;SDS011;43474;46.510;6.686;2022-10-16T01:31:24;3.20;;;1.13;;
57643;SDS011;43474;46.510;6.686;2022-10-16T01:36:49;2.53;;;0.80;;
57643;SDS011;43474;46.510;6.686;2022-10-16T01:39:21;2.45;;;0.80;;
57643;SDS011;43474;46.510;6.686;2022-10-16T01:41:53;1.65;;;1.40;;
57643;SDS011;43474;46.510;6.686;2022-10-16T01:44:31;5.78;;;1.00;;
57643;SDS011;43474;46.510;6.686;2022-10-16T01:46:59;1.80;;;1.20;;
57643;SDS011;43474;46.510;6.686;2022-10-16T01:49:26;2.00;;;0.93;;
57643;SDS011;43474;46.510;6.686;2022-10-16T01:51:57;1.08;;;0.98;;
57643;SDS011;43474;46.510;6.686;2022-10-16T01:54:27;2.80;;;0.70;;
57643;SDS011;43474;46.510;6.686;2022-10-16T01:56:57;7.07;;;1.63;;
57643;SDS011;43474;46.510;6.686;2022-10-16T01:59:24;2.47;;;0.90;;
57643;SDS011;43474;46.510;6.686;2022-10-16T02:01:54;1.95;;;1.15;;
57643;SDS011;43474;46.510;6.686;2022-10-16T02:04:33;5.20;;;1.15;;
57643;SDS011;43474;46.510;6.686;2022-10-16T02:07:01;1.77;;;0.90;;
57643;SDS011;43474;46.510;6.686;2022-10-16T02:09:27;1.25;;;0.90;;
57643;SDS011;43474;46.510;6.686;2022-10-16T02:11:56;4.78;;;1.10;;
57643;SDS011;43474;46.510;6.686;2022-10-16T02:14:24;1.90;;;1.00;;
57643;SDS011;43474;46.510;6.686;2022-10-16T02:16:51;1.98;;;0.63;;
57643;SDS011;43474;46.510;6.686;2022-10-16T02:19:17;1.73;;;0.80;;
57643;SDS011;43474;46.510;6.686;2022-10-16T02:24:37;1.10;;;0.80;;
57643;SDS011;43474;46.510;6.686;2022-10-16T02:27:13;2.58;;;0.90;;
57643;SDS011;43474;46.510;6.686;2022-10-16T02:29:56;2.13;;;0.90;;
57643;SDS011;43474;46.510;6.686;2022-10-16T02:32:44;0.82;;;0.60;;
57643;SDS011;43474;46.510;6.686;2022-10-16T02:35:13;2.65;;;0.73;;
57643;SDS011;43474;46.510;6.686;2022-10-16T02:37:41;0.70;;;0.60;;
57643;SDS011;43474;46.510;6.686;2022-10-16T02:40:07;2.30;;;0.90;;
57643;SDS011;43474;46.510;6.686;2022-10-16T02:42:34;0.90;;;0.80;;
57643;SDS011;43474;46.510;6.686;2022-10-16T02:45:02;5.57;;;0.88;;
57643;SDS011;43474;46.510;6.686;2022-10-16T02:47:28;1.20;;;0.63;;
57643;SDS011;43474;46.510;6.686;2022-10-16T02:49:54;3.08;;;0.77;;
57643;SDS011;43474;46.510;6.686;2022-10-16T02:52:19;1.00;;;0.73;;
57643;SDS011;43474;46.510;6.686;2022-10-16T02:54:45;0.65;;;0.55;;
57643;SDS011;43474;46.510;6.686;2022-10-16T02:57:11;1.05;;;0.77;;
57643;SDS011;43474;46.510;6.686;2022-10-16T02:59:37;1.70;;;0.77;;
57643;SDS011;43474;46.510;6.686;2022-10-16T03:02:02;3.40;;;0.90;;
57643;SDS011;43474;46.510;6.686;2022-10-16T03:04:28;2.50;;;0.80;;
57643;SDS011;43474;46.510;6.686;2022-10-16T03:06:54;1.13;;;0.70;;
57643;SDS011;43474;46.510;6.686;2022-10-16T03:09:19;3.20;;;0.70;;
57643;SDS011;43474;46.510;6.686;2022-10-16T03:11:45;1.67;;;0.70;;
57643;SDS011;43474;46.510;6.686;2022-10-16T03:14:11;2.00;;;0.68;;
57643;SDS011;43474;46.510;6.686;2022-10-16T03:16:36;1.67;;;1.00;;
57643;SDS011;43474;46.510;6.686;2022-10-16T03:19:02;0.90;;;0.80;;
57643;SDS011;43474;46.510;6.686;2022-10-16T03:21:27;2.67;;;1.15;;
57643;SDS011;43474;46.510;6.686;2022-10-16T03:23:53;2.78;;;0.80;;
57643;SDS011;43474;46.510;6.686;2022-10-16T03:26:18;1.23;;;0.80;;
57643;SDS011;43474;46.510;6.686;2022-10-16T03:28:44;6.47;;;0.80;;
57643;SDS011;43474;46.510;6.686;2022-10-16T03:31:09;1.63;;;0.77;;
57643;SDS011;43474;46.510;6.686;2022-10-16T03:33:35;1.52;;;0.70;;
57643;SDS011;43474;46.510;6.686;2022-10-16T03:36:00;0.70;;;0.60;;
57643;SDS011;43474;46.510;6.686;2022-10-16T03:38:26;2.30;;;0.77;;
57643;SDS011;43474;46.510;6.686;2022-10-16T03:40:51;4.57;;;1.35;;
57643;SDS011;43474;46.510;6.686;2022-10-16T03:43:17;0.85;;;0.57;;
57643;SDS011;43474;46.510;6.686;2022-10-16T03:45:43;1.52;;;0.80;;
57643;SDS011;43474;46.510;6.686;2022-10-16T03:48:08;2.67;;;0.77;;
57643;SDS011;43474;46.510;6.686;2022-10-16T03:50:34;0.88;;;0.80;;
57643;SDS011;43474;46.510;6.686;2022-10-16T03:52:59;1.05;;;0.88;;
57643;SDS011;43474;46.510;6.686;2022-10-16T03:55:25;0.63;;;0.50;;
57643;SDS011;43474;46.510;6.686;2022-10-16T03:57:51;1.95;;;0.73;;
57643;SDS011;43474;46.510;6.686;2022-10-16T04:00:16;1.23;;;0.65;;
57643;SDS011;43474;46.510;6.686;2022-10-16T04:02:42;1.52;;;0.70;;
57643;SDS011;43474;46.510;6.686;2022-10-16T04:05:07;1.30;;;0.70;;
57643;SDS011;43474;46.510;6.686;2022-10-16T04:07:34;2.78;;;0.70;;
57643;SDS011;43474;46.510;6.686;2022-10-16T04:09:59;2.65;;;0.82;;
57643;SDS011;43474;46.510;6.686;2022-10-16T04:12:25;2.05;;;0.73;;
57643;SDS011;43474;46.510;6.686;2022-10-16T04:14:51;1.58;;;0.70;;
57643;SDS011;43474;46.510;6.686;2022-10-16T04:17:17;1.52;;;0.60;;
57643;SDS011;43474;46.510;6.686;2022-10-16T04:19:43;0.90;;;0.70;;
57643;SDS011;43474;46.510;6.686;2022-10-16T04:22:08;0.98;;;0.75;;
57643;SDS011;43474;46.510;6.686;2022-10-16T04:24:34;1.13;;;0.70;;
57643;SDS011;43474;46.510;6.686;2022-10-16T04:27:00;0.73;;;0.68;;
57643;SDS011;43474;46.510;6.686;2022-10-16T04:29:25;3.45;;;0.98;;
57643;SDS011;43474;46.510;6.686;2022-10-16T04:31:51;0.73;;;0.70;;
57643;SDS011;43474;46.510;6.686;2022-10-16T04:34:16;2.60;;;0.80;;
57643;SDS011;43474;46.510;6.686;2022-10-16T04:36:42;2.92;;;0.80;;
57643;SDS011;43474;46.510;6.686;2022-10-16T04:39:07;1.63;;;1.02;;
57643;SDS011;43474;46.510;6.686;2022-10-16T04:41:33;2.42;;;0.70;;
57643;SDS011;43474;46.510;6.686;2022-10-16T04:43:59;2.47;;;1.00;;
57643;SDS011;43474;46.510;6.686;2022-10-16T04:46:24;0.63;;;0.63;;
57643;SDS011;43474;46.510;6.686;2022-10-16T04:48:50;1.50;;;0.88;;
57643;SDS011;43474;46.510;6.686;2022-10-16T04:51:15;4.65;;;0.85;;
57643;SDS011;43474;46.510;6.686;2022-10-16T04:53:41;1.40;;;0.88;;
57643;SDS011;43474;46.510;6.686;2022-10-16T04:56:07;3.03;;;0.95;;
57643;SDS011;43474;46.510;6.686;2022-10-16T04:58:32;2.10;;;0.70;;
57643;SDS011;43474;46.510;6.686;2022-10-16T05:00:58;1.10;;;0.70;;
57643;SDS011;43474;46.510;6.686;2022-10-16T05:03:24;4.22;;;0.98;;
57643;SDS011;43474;46.510;6.686;2022-10-16T05:05:49;3.08;;;0.90;;
57643;SDS011;43474;46.510;6.686;2022-10-16T05:08:15;4.97;;;0.80;;
57643;SDS011;43474;46.510;6.686;2022-10-16T05:10:42;1.48;;;0.77;;
57643;SDS011;43474;46.510;6.686;2022-10-16T05:13:09;1.13;;;0.90;;
57643;SDS011;43474;46.510;6.686;2022-10-16T05:15:35;1.92;;;0.82;;
57643;SDS011;43474;46.510;6.686;2022-10-16T05:18:00;2.25;;;0.80;;
57643;SDS011;43474;46.510;6.686;2022-10-16T05:20:26;2.78;;;0.70;;
57643;SDS011;43474;46.510;6.686;2022-10-16T05:22:51;1.08;;;0.80;;
57643;SDS011;43474;46.510;6.686;2022-10-16T05:25:17;1.98;;;0.70;;
57643;SDS011;43474;46.510;6.686;2022-10-16T05:27:43;2.72;;;0.90;;
57643;SDS011;43474;46.510;6.686;2022-10-16T05:30:09;1.15;;;0.70;;
57643;SDS011;43474;46.510;6.686;2022-10-16T05:32:34;1.20;;;0.88;;
57643;SDS011;43474;46.510;6.686;2022-10-16T05:35:00;2.33;;;0.90;;
57643;SDS011;43474;46.510;6.686;2022-10-16T05:37:27;2.85;;;0.80;;
57643;SDS011;43474;46.510;6.686;2022-10-16T05:39:52;2.33;;;0.90;;
57643;SDS011;43474;46.510;6.686;2022-10-16T05:42:18;1.80;;;1.02;;
57643;SDS011;43474;46.510;6.686;2022-10-16T05:44:44;3.17;;;0.98;;
57643;SDS011;43474;46.510;6.686;2022-10-16T05:47:09;1.83;;;0.80;;
57643;SDS011;43474;46.510;6.686;2022-10-16T05:49:36;2.05;;;0.85;;
57643;SDS011;43474;46.510;6.686;2022-10-16T05:52:01;4.13;;;0.77;;
57643;SDS011;43474;46.510;6.686;2022-10-16T05:54:27;0.90;;;0.70;;
57643;SDS011;43474;46.510;6.686;2022-10-16T05:56:52;1.85;;;1.00;;
57643;SDS011;43474;46.510;6.686;2022-10-16T05:59:18;4.25;;;1.08;;
57643;SDS011;43474;46.510;6.686;2022-10-16T06:01:43;2.67;;;0.90;;
57643;SDS011;43474;46.510;6.686;2022-10-16T06:04:09;1.38;;;0.80;;
57643;SDS011;43474;46.510;6.686;2022-10-16T06:06:34;4.20;;;1.00;;
57643;SDS011;43474;46.510;6.686;2022-10-16T06:09:02;2.33;;;0.88;;
57643;SDS011;43474;46.510;6.686;2022-10-16T06:11:29;3.00;;;1.00;;
57643;SDS011;43474;46.510;6.686;2022-10-16T06:13:56;4.25;;;1.00;;
57643;SDS011;43474;46.510;6.686;2022-10-16T06:16:24;0.70;;;0.70;;
57643;SDS011;43474;46.510;6.686;2022-10-16T06:18:51;2.03;;;0.80;;
57643;SDS011;43474;46.510;6.686;2022-10-16T06:21:18;1.50;;;0.98;;
57643;SDS011;43474;46.510;6.686;2022-10-16T06:23:50;1.92;;;1.00;;
57643;SDS011;43474;46.510;6.686;2022-10-16T06:26:17;1.48;;;0.90;;
57643;SDS011;43474;46.510;6.686;2022-10-16T06:28:45;1.17;;;0.80;;
57643;SDS011;43474;46.510;6.686;2022-10-16T06:31:10;2.97;;;0.70;;
57643;SDS011;43474;46.510;6.686;2022-10-16T06:33:37;1.85;;;0.70;;
57643;SDS011;43474;46.510;6.686;2022-10-16T06:36:08;4.68;;;0.80;;
57643;SDS011;43474;46.510;6.686;2022-10-16T06:38:38;2.97;;;0.90;;
57643;SDS011;43474;46.510;6.686;2022-10-16T06:41:04;1.20;;;1.00;;
57643;SDS011;43474;46.510;6.686;2022-10-16T06:43:32;2.13;;;0.90;;
57643;SDS011;43474;46.510;6.686;2022-10-16T06:45:58;1.23;;;0.70;;
57643;SDS011;43474;46.510;6.686;2022-10-16T06:48:25;1.05;;;0.80;;
57643;SDS011;43474;46.510;6.686;2022-10-16T06:51:10;1.17;;;0.80;;
57643;SDS011;43474;46.510;6.686;2022-10-16T06:53:39;3.92;;;0.90;;
57643;SDS011;43474;46.510;6.686;2022-10-16T06:56:11;5.20;;;1.10;;
57643;SDS011;43474;46.510;6.686;2022-10-16T06:58:37;1.23;;;0.65;;
57643;SDS011;43474;46.510;6.686;2022-10-16T07:01:03;1.42;;;0.95;;
57643;SDS011;43474;46.510;6.686;2022-10-16T07:03:29;0.73;;;0.73;;
57643;SDS011;43474;46.510;6.686;2022-10-16T07:05:55;4.68;;;1.73;;
57643;SDS011;43474;46.510;6.686;2022-10-16T07:08:21;2.15;;;0.73;;
57643;SDS011;43474;46.510;6.686;2022-10-16T07:10:47;1.20;;;0.70;;
57643;SDS011;43474;46.510;6.686;2022-10-16T07:13:13;1.35;;;0.93;;
57643;SDS011;43474;46.510;6.686;2022-10-16T07:15:39;1.90;;;0.82;;
57643;SDS011;43474;46.510;6.686;2022-10-16T07:18:06;1.10;;;0.80;;
57643;SDS011;43474;46.510;6.686;2022-10-16T07:20:32;1.70;;;1.00;;
57643;SDS011;43474;46.510;6.686;2022-10-16T07:22:58;1.45;;;0.90;;
57643;SDS011;43474;46.510;6.686;2022-10-16T07:25:23;1.73;;;0.90;;
57643;SDS011;43474;46.510;6.686;2022-10-16T07:27:49;1.35;;;0.77;;
57643;SDS011;43474;46.510;6.686;2022-10-16T07:30:14;0.95;;;0.85;;
57643;SDS011;43474;46.510;6.686;2022-10-16T07:32:40;1.00;;;0.80;;
57643;SDS011;43474;46.510;6.686;2022-10-16T07:35:06;1.17;;;0.85;;
57643;SDS011;43474;46.510;6.686;2022-10-16T07:37:31;1.55;;;0.90;;
57643;SDS011;43474;46.510;6.686;2022-10-16T07:39:57;4.20;;;1.00;;
57643;SDS011;43474;46.510;6.686;2022-10-16T07:42:22;3.10;;;0.80;;
57643;SDS011;43474;46.510;6.686;2022-10-16T07:44:48;1.23;;;0.70;;
57643;SDS011;43474;46.510;6.686;2022-10-16T07:47:14;1.52;;;0.75;;
57643;SDS011;43474;46.510;6.686;2022-10-16T07:49:39;2.28;;;0.90;;
57643;SDS011;43474;46.510;6.686;2022-10-16T07:52:05;1.05;;;0.80;;
57643;SDS011;43474;46.510;6.686;2022-10-16T07:54:30;1.48;;;0.90;;
57643;SDS011;43474;46.510;6.686;2022-10-16T07:56:56;4.68;;;0.90;;
57643;SDS011;43474;46.510;6.686;2022-10-16T07:59:21;1.00;;;0.80;;
57643;SDS011;43474;46.510;6.686;2022-10-16T08:01:48;2.67;;;1.00;;
57643;SDS011;43474;46.510;6.686;2022-10-16T08:04:14;5.05;;;1.08;;
57643;SDS011;43474;46.510;6.686;2022-10-16T08:06:40;2.08;;;0.90;;
57643;SDS011;43474;46.510;6.686;2022-10-16T08:09:06;1.38;;;0.70;;
57643;SDS011;43474;46.510;6.686;2022-10-16T08:11:33;2.00;;;0.73;;
57643;SDS011;43474;46.510;6.686;2022-10-16T08:13:58;5.35;;;1.63;;
57643;SDS011;43474;46.510;6.686;2022-10-16T08:16:24;1.10;;;0.80;;
57643;SDS011;43474;46.510;6.686;2022-10-16T08:18:49;1.95;;;0.60;;
57643;SDS011;43474;46.510;6.686;2022-10-16T08:21:17;0.93;;;0.70;;
57643;SDS011;43474;46.510;6.686;2022-10-16T08:23:44;0.70;;;0.70;;
57643;SDS011;43474;46.510;6.686;2022-10-16T08:26:11;1.45;;;0.80;;
57643;SDS011;43474;46.510;6.686;2022-10-16T08:28:37;2.20;;;0.70;;
57643;SDS011;43474;46.510;6.686;2022-10-16T08:31:12;2.25;;;1.00;;
57643;SDS011;43474;46.510;6.686;2022-10-16T08:33:40;1.63;;;0.93;;
57643;SDS011;43474;46.510;6.686;2022-10-16T08:36:08;1.55;;;1.20;;
57643;SDS011;43474;46.510;6.686;2022-10-16T08:38:35;3.20;;;0.95;;
57643;SDS011;43474;46.510;6.686;2022-10-16T08:41:22;2.22;;;1.05;;
57643;SDS011;43474;46.510;6.686;2022-10-16T08:49:32;1.10;;;0.80;;
57643;SDS011;43474;46.510;6.686;2022-10-16T08:51:58;2.00;;;0.75;;
57643;SDS011;43474;46.510;6.686;2022-10-16T08:54:32;0.82;;;0.75;;
57643;SDS011;43474;46.510;6.686;2022-10-16T08:57:14;1.00;;;0.63;;
57643;SDS011;43474;46.510;6.686;2022-10-16T08:59:44;1.27;;;0.80;;
57643;SDS011;43474;46.510;6.686;2022-10-16T09:04:58;1.60;;;0.90;;
57643;SDS011;43474;46.510;6.686;2022-10-16T09:10:17;1.48;;;0.82;;
57643;SDS011;43474;46.510;6.686;2022-10-16T09:18:47;0.98;;;0.77;;
57643;SDS011;43474;46.510;6.686;2022-10-16T09:23:46;0.60;;;0.55;;
57643;SDS011;43474;46.510;6.686;2022-10-16T09:26:15;1.80;;;0.77;;
57643;SDS011;43474;46.510;6.686;2022-10-16T09:28:43;2.70;;;1.50;;
57643;SDS011;43474;46.510;6.686;2022-10-16T09:31:12;2.95;;;0.70;;
57643;SDS011;43474;46.510;6.686;2022-10-16T09:33:41;2.35;;;0.80;;
57643;SDS011;43474;46.510;6.686;2022-10-16T09:36:08;2.85;;;0.90;;
57643;SDS011;43474;46.510;6.686;2022-10-16T09:38:35;2.63;;;0.90;;
57643;SDS011;43474;46.510;6.686;2022-10-16T09:41:03;3.20;;;1.00;;
57643;SDS011;43474;46.510;6.686;2022-10-16T09:43:41;0.82;;;0.80;;
57643;SDS011;43474;46.510;6.686;2022-10-16T09:46:24;1.73;;;0.90;;
57643;SDS011;43474;46.510;6.686;2022-10-16T09:48:57;1.23;;;0.68;;
57643;SDS011;43474;46.510;6.686;2022-10-16T09:51:28;1.10;;;0.70;;
57643;SDS011;43474;46.510;6.686;2022-10-16T09:56:29;2.67;;;0.90;;
57643;SDS011;43474;46.510;6.686;2022-10-16T09:58:59;1.20;;;0.98;;
57643;SDS011;43474;46.510;6.686;2022-10-16T10:01:28;0.60;;;0.60;;
57643;SDS011;43474;46.510;6.686;2022-10-16T10:03:57;1.90;;;0.90;;
57643;SDS011;43474;46.510;6.686;2022-10-16T10:06:31;1.05;;;0.80;;
57643;SDS011;43474;46.510;6.686;2022-10-16T10:09:02;2.10;;;0.90;;
57643;SDS011;43474;46.510;6.686;2022-10-16T10:11:40;4.53;;;1.00;;
57643;SDS011;43474;46.510;6.686;2022-10-16T10:14:10;2.15;;;0.85;;
57643;SDS011;43474;46.510;6.686;2022-10-16T10:16:45;2.28;;;0.93;;
57643;SDS011;43474;46.510;6.686;2022-10-16T10:19:18;3.60;;;1.05;;
57643;SDS011;43474;46.510;6.686;2022-10-16T10:21:45;2.05;;;0.90;;
57643;SDS011;43474;46.510;6.686;2022-10-16T10:24:12;2.15;;;1.00;;
57643;SDS011;43474;46.510;6.686;2022-10-16T10:26:41;1.38;;;1.10;;
57643;SDS011;43474;46.510;6.686;2022-10-16T10:29:36;3.05;;;1.10;;
57643;SDS011;43474;46.510;6.686;2022-10-16T10:35:17;2.97;;;0.90;;
57643;SDS011;43474;46.510;6.686;2022-10-16T10:37:55;1.75;;;0.90;;
57643;SDS011;43474;46.510;6.686;2022-10-16T10:40:34;3.20;;;1.00;;
57643;SDS011;43474;46.510;6.686;2022-10-16T10:46:39;1.20;;;0.60;;
57643;SDS011;43474;46.510;6.686;2022-10-16T10:49:28;1.67;;;0.82;;
57643;SDS011;43474;46.510;6.686;2022-10-16T10:55:24;0.93;;;0.80;;
57643;SDS011;43474;46.510;6.686;2022-10-16T11:01:40;1.00;;;0.70;;
57643;SDS011;43474;46.510;6.686;2022-10-16T11:09:44;1.05;;;0.80;;
57643;SDS011;43474;46.510;6.686;2022-10-16T11:14:58;1.50;;;0.95;;
57643;SDS011;43474;46.510;6.686;2022-10-16T11:17:31;3.45;;;0.95;;
57643;SDS011;43474;46.510;6.686;2022-10-16T11:20:05;1.58;;;1.48;;
57643;SDS011;43474;46.510;6.686;2022-10-16T11:22:42;1.67;;;0.90;;
57643;SDS011;43474;46.510;6.686;2022-10-16T11:27:40;1.05;;;0.82;;
57643;SDS011;43474;46.510;6.686;2022-10-16T11:30:18;1.05;;;0.82;;
57643;SDS011;43474;46.510;6.686;2022-10-16T11:33:00;2.33;;;0.80;;
57643;SDS011;43474;46.510;6.686;2022-10-16T11:35:35;1.25;;;0.65;;
57643;SDS011;43474;46.510;6.686;2022-10-16T11:38:09;2.78;;;1.00;;
57643;SDS011;43474;46.510;6.686;2022-10-16T11:40:51;3.20;;;0.93;;
57643;SDS011;43474;46.510;6.686;2022-10-16T11:43:29;0.77;;;0.75;;
57643;SDS011;43474;46.510;6.686;2022-10-16T11:46:02;2.20;;;1.00;;
57643;SDS011;43474;46.510;6.686;2022-10-16T11:48:47;1.30;;;0.90;;
57643;SDS011;43474;46.510;6.686;2022-10-16T11:54:27;2.30;;;0.98;;
57643;SDS011;43474;46.510;6.686;2022-10-16T11:56:59;1.63;;;0.70;;
57643;SDS011;43474;46.510;6.686;2022-10-16T11:59:37;3.90;;;0.90;;
57643;SDS011;43474;46.510;6.686;2022-10-16T12:05:14;1.65;;;0.90;;
57643;SDS011;43474;46.510;6.686;2022-10-16T12:07:52;1.38;;;0.95;;
57643;SDS011;43474;46.510;6.686;2022-10-16T12:10:28;3.42;;;0.98;;
57643;SDS011;43474;46.510;6.686;2022-10-16T12:12:56;2.05;;;1.00;;
57643;SDS011;43474;46.510;6.686;2022-10-16T12:15:24;4.30;;;1.00;;
57643;SDS011;43474;46.510;6.686;2022-10-16T12:17:55;1.52;;;0.88;;
57643;SDS011;43474;46.510;6.686;2022-10-16T12:20:32;2.17;;;0.80;;
57643;SDS011;43474;46.510;6.686;2022-10-16T12:23:02;1.73;;;0.80;;
57643;SDS011;43474;46.510;6.686;2022-10-16T12:28:03;1.52;;;1.10;;
57643;SDS011;43474;46.510;6.686;2022-10-16T12:30:32;1.23;;;0.90;;
57643;SDS011;43474;46.510;6.686;2022-10-16T12:33:01;1.63;;;1.10;;
57643;SDS011;43474;46.510;6.686;2022-10-16T12:35:30;1.47;;;0.93;;
57643;SDS011;43474;46.510;6.686;2022-10-16T12:38:14;0.95;;;0.93;;
57643;SDS011;43474;46.510;6.686;2022-10-16T12:40:46;1.15;;;1.05;;
57643;SDS011;43474;46.510;6.686;2022-10-16T12:45:45;1.98;;;1.13;;
57643;SDS011;43474;46.510;6.686;2022-10-16T12:48:18;2.67;;;1.10;;
57643;SDS011;43474;46.510;6.686;2022-10-16T12:50:46;6.00;;;1.10;;
57643;SDS011;43474;46.510;6.686;2022-10-16T12:53:20;2.83;;;1.00;;
57643;SDS011;43474;46.510;6.686;2022-10-16T12:58:37;1.13;;;1.00;;
57643;SDS011;43474;46.510;6.686;2022-10-16T13:01:17;1.52;;;1.20;;
57643;SDS011;43474;46.510;6.686;2022-10-16T13:15:27;2.92;;;1.10;;
57643;SDS011;43474;46.510;6.686;2022-10-16T13:23:55;1.63;;;1.20;;
57643;SDS011;43474;46.510;6.686;2022-10-16T13:28:59;5.10;;;1.23;;
57643;SDS011;43474;46.510;6.686;2022-10-16T13:31:26;1.13;;;1.02;;
57643;SDS011;43474;46.510;6.686;2022-10-16T13:33:54;1.40;;;1.10;;
57643;SDS011;43474;46.510;6.686;2022-10-16T13:36:33;1.20;;;1.00;;
57643;SDS011;43474;46.510;6.686;2022-10-16T13:39:15;4.10;;;1.30;;
57643;SDS011;43474;46.510;6.686;2022-10-16T13:42:03;2.97;;;1.27;;
57643;SDS011;43474;46.510;6.686;2022-10-16T13:44:31;1.52;;;1.17;;
57643;SDS011;43474;46.510;6.686;2022-10-16T13:47:02;6.22;;;1.33;;
57643;SDS011;43474;46.510;6.686;2022-10-16T13:49:28;1.38;;;1.27;;
57643;SDS011;43474;46.510;6.686;2022-10-16T13:51:54;3.50;;;1.17;;
57643;SDS011;43474;46.510;6.686;2022-10-16T13:54:21;4.93;;;1.25;;
57643;SDS011;43474;46.510;6.686;2022-10-16T13:56:47;3.58;;;1.20;;
57643;SDS011;43474;46.510;6.686;2022-10-16T13:59:26;1.75;;;0.98;;
57643;SDS011;43474;46.510;6.686;2022-10-16T14:01:58;3.33;;;1.20;;
57643;SDS011;43474;46.510;6.686;2022-10-16T14:04:27;1.65;;;1.10;;
57643;SDS011;43474;46.510;6.686;2022-10-16T14:06:58;1.77;;;1.35;;
57643;SDS011;43474;46.510;6.686;2022-10-16T14:09:24;1.38;;;1.10;;
57643;SDS011;43474;46.510;6.686;2022-10-16T14:11:57;3.33;;;1.33;;
57643;SDS011;43474;46.510;6.686;2022-10-16T14:14:26;3.90;;;1.20;;
57643;SDS011;43474;46.510;6.686;2022-10-16T14:16:55;4.38;;;1.20;;
57643;SDS011;43474;46.510;6.686;2022-10-16T14:19:24;3.35;;;1.17;;
57643;SDS011;43474;46.510;6.686;2022-10-16T14:21:52;2.50;;;1.15;;
57643;SDS011;43474;46.510;6.686;2022-10-16T14:26:57;1.55;;;0.98;;
57643;SDS011;43474;46.510;6.686;2022-10-16T14:29:24;3.42;;;1.25;;
57643;SDS011;43474;46.510;6.686;2022-10-16T14:31:55;3.03;;;1.20;;
57643;SDS011;43474;46.510;6.686;2022-10-16T14:34:24;1.17;;;1.00;;
57643;SDS011;43474;46.510;6.686;2022-10-16T14:36:49;2.20;;;1.30;;
57643;SDS011;43474;46.510;6.686;2022-10-16T14:39:19;2.45;;;1.13;;
57643;SDS011;43474;46.510;6.686;2022-10-16T14:41:47;2.13;;;1.30;;
57643;SDS011;43474;46.510;6.686;2022-10-16T14:44:14;4.00;;;1.15;;
57643;SDS011;43474;46.510;6.686;2022-10-16T14:46:42;2.65;;;1.30;;
57643;SDS011;43474;46.510;6.686;2022-10-16T14:51:35;1.30;;;1.08;;
57643;SDS011;43474;46.510;6.686;2022-10-16T14:54:01;1.40;;;1.30;;
57643;SDS011;43474;46.510;6.686;2022-10-16T14:56:44;2.88;;;1.42;;
57643;SDS011;43474;46.510;6.686;2022-10-16T14:59:44;3.80;;;1.13;;
57643;SDS011;43474;46.510;6.686;2022-10-16T15:02:25;3.95;;;1.40;;
57643;SDS011;43474;46.510;6.686;2022-10-16T15:04:54;1.53;;;1.23;;
57643;SDS011;43474;46.510;6.686;2022-10-16T15:07:20;1.33;;;1.20;;
57643;SDS011;43474;46.510;6.686;2022-10-16T15:09:46;3.90;;;1.58;;
57643;SDS011;43474;46.510;6.686;2022-10-16T15:12:11;2.00;;;1.13;;
57643;SDS011;43474;46.510;6.686;2022-10-16T15:14:37;1.73;;;1.20;;
57643;SDS011;43474;46.510;6.686;2022-10-16T15:17:03;2.67;;;1.50;;
57643;SDS011;43474;46.510;6.686;2022-10-16T15:19:29;2.85;;;1.10;;
57643;SDS011;43474;46.510;6.686;2022-10-16T15:21:55;3.58;;;1.20;;
57643;SDS011;43474;46.510;6.686;2022-10-16T15:24:20;6.85;;;1.45;;
57643;SDS011;43474;46.510;6.686;2022-10-16T15:26:46;1.45;;;1.10;;
57643;SDS011;43474;46.510;6.686;2022-10-16T15:29:12;3.13;;;1.38;;
57643;SDS011;43474;46.510;6.686;2022-10-16T15:31:38;2.08;;;1.30;;
57643;SDS011;43474;46.510;6.686;2022-10-16T15:34:04;2.33;;;1.70;;
57643;SDS011;43474;46.510;6.686;2022-10-16T15:36:32;9.80;;;1.58;;
57643;SDS011;43474;46.510;6.686;2022-10-16T15:41:46;1.50;;;1.10;;
57643;SDS011;43474;46.510;6.686;2022-10-16T15:46:45;2.35;;;1.15;;
57643;SDS011;43474;46.510;6.686;2022-10-16T15:49:12;1.83;;;1.33;;
57643;SDS011;43474;46.510;6.686;2022-10-16T15:51:38;3.63;;;1.40;;
57643;SDS011;43474;46.510;6.686;2022-10-16T15:54:05;1.92;;;1.25;;
57643;SDS011;43474;46.510;6.686;2022-10-16T15:56:30;5.78;;;2.10;;
57643;SDS011;43474;46.510;6.686;2022-10-16T15:58:58;3.85;;;1.55;;
57643;SDS011;43474;46.510;6.686;2022-10-16T16:01:27;3.95;;;1.25;;
57643;SDS011;43474;46.510;6.686;2022-10-16T16:03:54;5.03;;;1.55;;
57643;SDS011;43474;46.510;6.686;2022-10-16T16:06:20;1.85;;;1.20;;
57643;SDS011;43474;46.510;6.686;2022-10-16T16:08:46;2.78;;;1.52;;
57643;SDS011;43474;46.510;6.686;2022-10-16T16:11:13;2.00;;;1.50;;
57643;SDS011;43474;46.510;6.686;2022-10-16T16:13:40;5.60;;;1.58;;
57643;SDS011;43474;46.510;6.686;2022-10-16T16:16:07;2.20;;;1.42;;
57643;SDS011;43474;46.510;6.686;2022-10-16T16:18:34;2.38;;;1.45;;
57643;SDS011;43474;46.510;6.686;2022-10-16T16:20:59;2.72;;;1.60;;
57643;SDS011;43474;46.510;6.686;2022-10-16T16:23:25;3.15;;;2.00;;
57643;SDS011;43474;46.510;6.686;2022-10-16T16:26:51;5.28;;;2.00;;
57643;SDS011;43474;46.510;6.686;2022-10-16T16:28:52;4.03;;;2.90;;
57643;SDS011;43474;46.510;6.686;2022-10-16T16:31:25;3.88;;;2.60;;
57643;SDS011;43474;46.510;6.686;2022-10-16T16:33:53;8.38;;;3.35;;
57643;SDS011;43474;46.510;6.686;2022-10-16T16:36:19;5.03;;;1.77;;
57643;SDS011;43474;46.510;6.686;2022-10-16T16:38:45;3.90;;;1.92;;
57643;SDS011;43474;46.510;6.686;2022-10-16T16:41:18;3.38;;;1.75;;
57643;SDS011;43474;46.510;6.686;2022-10-16T16:43:45;2.95;;;2.10;;
57643;SDS011;43474;46.510;6.686;2022-10-16T16:46:12;3.95;;;2.85;;
57643;SDS011;43474;46.510;6.686;2022-10-16T16:48:39;2.67;;;2.00;;
57643;SDS011;43474;46.510;6.686;2022-10-16T16:51:05;3.10;;;2.20;;
57643;SDS011;43474;46.510;6.686;2022-10-16T16:53:36;5.28;;;2.60;;